Terminal Aerodrome Forecast
Issued by NWS

Home | Current Version | Previous Version | Text Only | Print | Product List | Glossary On
Versions: 1 2 3 4 5 6 7 8 9 10 11 12 13 14 15 16 17 18 19 20 21 22 23 24 25 26 27 28
000
FTUS46 KLOX 301100
TAFLAX
TAF
KLAX 301133Z 3012/0118 VRB03KT P6SM SKC
     FM301800 26012KT P6SM SKC
     FM010400 VRB03KT P6SM SKC
     FM010700 VRB03KT P6SM BKN008
     FM011000 VRB03KT P6SM OVC012
     FM011600 22006KT P6SM SCT015=

USA.gov is the U.S. government's official web portal to all federal, state and local government web resources and services.